sensor_id;sensor_type;location;lat;lon;timestamp;temperature;humidity
44223;DHT22;29895;48.804;9.386;2022-07-06T03:57:00;13.20;99.90
44223;DHT22;29895;48.804;9.386;2022-07-06T03:59:26;13.20;99.90
44223;DHT22;29895;48.804;9.386;2022-07-06T04:01:52;13.40;99.90
44223;DHT22;29895;48.804;9.386;2022-07-06T04:04:18;13.50;99.90
44223;DHT22;29895;48.804;9.386;2022-07-06T04:06:44;13.70;99.90
44223;DHT22;29895;48.804;9.386;2022-07-06T04:09:09;13.90;99.90
44223;DHT22;29895;48.804;9.386;2022-07-06T04:11:35;14.00;99.90
44223;DHT22;29895;48.804;9.386;2022-07-06T04:14:00;14.20;99.90
44223;DHT22;29895;48.804;9.386;2022-07-06T04:16:26;14.30;99.90
44223;DHT22;29895;48.804;9.386;2022-07-06T04:18:51;14.50;99.90
44223;DHT22;29895;48.804;9.386;2022-07-06T04:21:17;14.70;99.90
44223;DHT22;29895;48.804;9.386;2022-07-06T04:23:42;14.80;99.90
44223;DHT22;29895;48.804;9.386;2022-07-06T04:26:08;15.00;99.90
44223;DHT22;29895;48.804;9.386;2022-07-06T04:28:33;15.10;99.90
44223;DHT22;29895;48.804;9.386;2022-07-06T04:31:00;15.30;99.90
44223;DHT22;29895;48.804;9.386;2022-07-06T04:33:26;15.50;99.90
44223;DHT22;29895;48.804;9.386;2022-07-06T04:35:51;15.70;99.90
44223;DHT22;29895;48.804;9.386;2022-07-06T04:38:17;16.00;99.90
44223;DHT22;29895;48.804;9.386;2022-07-06T04:40:42;16.20;99.90
44223;DHT22;29895;48.804;9.386;2022-07-06T04:43:08;16.40;99.90
44223;DHT22;29895;48.804;9.386;2022-07-06T04:45:34;16.40;99.90
44223;DHT22;29895;48.804;9.386;2022-07-06T04:47:59;16.50;99.90
44223;DHT22;29895;48.804;9.386;2022-07-06T04:50:25;16.70;99.90
44223;DHT22;29895;48.804;9.386;2022-07-06T04:52:50;16.90;99.90
44223;DHT22;29895;48.804;9.386;2022-07-06T04:55:16;17.20;99.90
44223;DHT22;29895;48.804;9.386;2022-07-06T04:57:41;17.50;99.90
44223;DHT22;29895;48.804;9.386;2022-07-06T05:00:24;17.80;99.90
44223;DHT22;29895;48.804;9.386;2022-07-06T05:02:49;18.00;99.90
44223;DHT22;29895;48.804;9.386;2022-07-06T05:05:15;18.30;99.90
44223;DHT22;29895;48.804;9.386;2022-07-06T05:07:40;18.30;99.90
44223;DHT22;29895;48.804;9.386;2022-07-06T05:10:07;18.50;99.90
44223;DHT22;29895;48.804;9.386;2022-07-06T05:12:33;18.50;99.90
44223;DHT22;29895;48.804;9.386;2022-07-06T05:14:58;18.50;99.90
44223;DHT22;29895;48.804;9.386;2022-07-06T05:17:25;18.50;99.90
44223;DHT22;29895;48.804;9.386;2022-07-06T05:19:50;18.70;99.90
44223;DHT22;29895;48.804;9.386;2022-07-06T05:22:16;18.90;99.90
44223;DHT22;29895;48.804;9.386;2022-07-06T05:24:43;19.10;99.90
44223;DHT22;29895;48.804;9.386;2022-07-06T05:27:08;19.20;99.90
44223;DHT22;29895;48.804;9.386;2022-07-06T05:29:34;19.40;99.90
44223;DHT22;29895;48.804;9.386;2022-07-06T05:31:59;19.60;99.90
44223;DHT22;29895;48.804;9.386;2022-07-06T05:34:25;19.80;99.90
44223;DHT22;29895;48.804;9.386;2022-07-06T05:36:50;19.80;99.90
44223;DHT22;29895;48.804;9.386;2022-07-06T05:39:16;20.00;99.90
44223;DHT22;29895;48.804;9.386;2022-07-06T05:41:48;20.10;99.90
44223;DHT22;29895;48.804;9.386;2022-07-06T05:44:13;20.30;99.90
44223;DHT22;29895;48.804;9.386;2022-07-06T05:46:52;20.20;99.90
44223;DHT22;29895;48.804;9.386;2022-07-06T05:49:37;20.20;99.90
44223;DHT22;29895;48.804;9.386;2022-07-06T05:52:22;20.50;99.90
44223;DHT22;29895;48.804;9.386;2022-07-06T05:54:47;20.40;99.90
44223;DHT22;29895;48.804;9.386;2022-07-06T05:57:13;20.30;99.90
44223;DHT22;29895;48.804;9.386;2022-07-06T05:59:38;20.40;99.90
44223;DHT22;29895;48.804;9.386;2022-07-06T06:02:04;20.40;99.90
44223;DHT22;29895;48.804;9.386;2022-07-06T06:04:30;20.30;99.90
44223;DHT22;29895;48.804;9.386;2022-07-06T06:06:56;20.70;99.90
44223;DHT22;29895;48.804;9.386;2022-07-06T06:09:21;20.90;99.90
44223;DHT22;29895;48.804;9.386;2022-07-06T06:11:47;20.60;99.90
44223;DHT22;29895;48.804;9.386;2022-07-06T06:14:12;20.50;99.90
44223;DHT22;29895;48.804;9.386;2022-07-06T06:16:37;20.70;99.90
44223;DHT22;29895;48.804;9.386;2022-07-06T06:19:03;21.10;99.90
44223;DHT22;29895;48.804;9.386;2022-07-06T06:21:28;21.50;99.90
44223;DHT22;29895;48.804;9.386;2022-07-06T06:23:54;21.60;99.90
44223;DHT22;29895;48.804;9.386;2022-07-06T06:26:20;21.40;99.90
44223;DHT22;29895;48.804;9.386;2022-07-06T06:28:46;21.40;99.90
44223;DHT22;29895;48.804;9.386;2022-07-06T06:31:11;21.40;99.90
44223;DHT22;29895;48.804;9.386;2022-07-06T06:33:37;21.70;99.90
44223;DHT22;29895;48.804;9.386;2022-07-06T06:36:03;22.00;99.60
44223;DHT22;29895;48.804;9.386;2022-07-06T06:38:29;21.90;99.80
44223;DHT22;29895;48.804;9.386;2022-07-06T06:40:55;21.90;99.50
44223;DHT22;29895;48.804;9.386;2022-07-06T06:43:20;21.80;99.70
44223;DHT22;29895;48.804;9.386;2022-07-06T06:45:46;22.30;99.40
44223;DHT22;29895;48.804;9.386;2022-07-06T06:48:11;22.80;98.40
44223;DHT22;29895;48.804;9.386;2022-07-06T06:50:37;22.90;98.20
44223;DHT22;29895;48.804;9.386;2022-07-06T06:53:02;22.70;98.10
44223;DHT22;29895;48.804;9.386;2022-07-06T06:55:28;22.30;98.20
44223;DHT22;29895;48.804;9.386;2022-07-06T06:57:54;21.80;98.50
44223;DHT22;29895;48.804;9.386;2022-07-06T07:00:19;22.00;98.50
44223;DHT22;29895;48.804;9.386;2022-07-06T07:02:45;22.60;98.50
44223;DHT22;29895;48.804;9.386;2022-07-06T07:05:10;23.10;97.30
44223;DHT22;29895;48.804;9.386;2022-07-06T07:07:36;23.30;97.00
44223;DHT22;29895;48.804;9.386;2022-07-06T07:10:02;23.30;96.90
44223;DHT22;29895;48.804;9.386;2022-07-06T07:12:28;22.40;97.40
44223;DHT22;29895;48.804;9.386;2022-07-06T07:14:54;22.00;98.30
44223;DHT22;29895;48.804;9.386;2022-07-06T07:17:19;22.00;98.40
44223;DHT22;29895;48.804;9.386;2022-07-06T07:19:45;22.20;97.80
44223;DHT22;29895;48.804;9.386;2022-07-06T07:22:10;22.30;97.20
44223;DHT22;29895;48.804;9.386;2022-07-06T07:24:36;22.40;97.30
44223;DHT22;29895;48.804;9.386;2022-07-06T07:27:01;22.20;97.60
44223;DHT22;29895;48.804;9.386;2022-07-06T07:29:27;22.50;97.10
44223;DHT22;29895;48.804;9.386;2022-07-06T07:31:53;22.40;97.20
44223;DHT22;29895;48.804;9.386;2022-07-06T07:34:18;22.40;97.00
44223;DHT22;29895;48.804;9.386;2022-07-06T07:36:44;22.30;97.30
44223;DHT22;29895;48.804;9.386;2022-07-06T07:39:11;22.30;97.00
44223;DHT22;29895;48.804;9.386;2022-07-06T07:41:36;22.20;97.60
44223;DHT22;29895;48.804;9.386;2022-07-06T07:44:02;22.60;97.30
44223;DHT22;29895;48.804;9.386;2022-07-06T07:46:27;22.50;97.20
44223;DHT22;29895;48.804;9.386;2022-07-06T07:48:53;22.60;97.10
44223;DHT22;29895;48.804;9.386;2022-07-06T07:51:18;22.70;96.60
44223;DHT22;29895;48.804;9.386;2022-07-06T07:53:45;23.00;96.60
44223;DHT22;29895;48.804;9.386;2022-07-06T07:56:12;23.10;96.10
44223;DHT22;29895;48.804;9.386;2022-07-06T07:58:38;22.80;96.30
44223;DHT22;29895;48.804;9.386;2022-07-06T08:01:03;22.50;96.40
44223;DHT22;29895;48.804;9.386;2022-07-06T08:03:29;23.10;96.70
44223;DHT22;29895;48.804;9.386;2022-07-06T08:05:55;23.90;95.80
44223;DHT22;29895;48.804;9.386;2022-07-06T08:08:21;24.30;94.80
44223;DHT22;29895;48.804;9.386;2022-07-06T08:10:46;24.50;95.10
44223;DHT22;29895;48.804;9.386;2022-07-06T08:13:12;24.70;94.70
44223;DHT22;29895;48.804;9.386;2022-07-06T08:15:39;24.40;95.20
44223;DHT22;29895;48.804;9.386;2022-07-06T08:18:05;24.70;95.00
44223;DHT22;29895;48.804;9.386;2022-07-06T08:20:30;25.10;94.10
44223;DHT22;29895;48.804;9.386;2022-07-06T08:22:56;24.60;94.60
44223;DHT22;29895;48.804;9.386;2022-07-06T08:25:21;24.50;95.10
44223;DHT22;29895;48.804;9.386;2022-07-06T08:27:47;24.50;95.20
44223;DHT22;29895;48.804;9.386;2022-07-06T08:30:13;24.80;94.70
44223;DHT22;29895;48.804;9.386;2022-07-06T08:32:40;25.20;94.40
44223;DHT22;29895;48.804;9.386;2022-07-06T08:35:06;25.10;94.10
44223;DHT22;29895;48.804;9.386;2022-07-06T08:37:31;24.90;94.00
44223;DHT22;29895;48.804;9.386;2022-07-06T08:39:57;24.60;94.60
44223;DHT22;29895;48.804;9.386;2022-07-06T08:42:23;24.80;94.10
44223;DHT22;29895;48.804;9.386;2022-07-06T08:44:50;25.10;93.70
44223;DHT22;29895;48.804;9.386;2022-07-06T08:47:18;25.00;94.10
44223;DHT22;29895;48.804;9.386;2022-07-06T08:49:44;25.10;93.70
44223;DHT22;29895;48.804;9.386;2022-07-06T08:52:09;25.60;92.90
44223;DHT22;29895;48.804;9.386;2022-07-06T08:54:35;25.90;92.80
44223;DHT22;29895;48.804;9.386;2022-07-06T08:57:02;25.90;93.40
44223;DHT22;29895;48.804;9.386;2022-07-06T08:59:28;25.40;92.90
44223;DHT22;29895;48.804;9.386;2022-07-06T09:01:54;25.30;93.80
44223;DHT22;29895;48.804;9.386;2022-07-06T09:04:21;25.20;92.90
44223;DHT22;29895;48.804;9.386;2022-07-06T09:06:47;24.80;93.60
44223;DHT22;29895;48.804;9.386;2022-07-06T09:09:16;25.00;93.70
44223;DHT22;29895;48.804;9.386;2022-07-06T09:11:45;25.40;93.40
44223;DHT22;29895;48.804;9.386;2022-07-06T09:14:10;25.80;92.80
44223;DHT22;29895;48.804;9.386;2022-07-06T09:16:36;25.90;92.40
44223;DHT22;29895;48.804;9.386;2022-07-06T09:19:02;26.00;91.90
44223;DHT22;29895;48.804;9.386;2022-07-06T09:21:28;25.90;91.90
44223;DHT22;29895;48.804;9.386;2022-07-06T09:23:57;25.80;92.00
44223;DHT22;29895;48.804;9.386;2022-07-06T09:26:25;25.30;92.10
44223;DHT22;29895;48.804;9.386;2022-07-06T09:28:51;24.50;93.10
44223;DHT22;29895;48.804;9.386;2022-07-06T09:31:17;24.40;93.40
44223;DHT22;29895;48.804;9.386;2022-07-06T09:36:39;23.90;93.80
44223;DHT22;29895;48.804;9.386;2022-07-06T09:41:40;24.10;93.80
44223;DHT22;29895;48.804;9.386;2022-07-06T09:44:05;24.50;93.60
44223;DHT22;29895;48.804;9.386;2022-07-06T09:46:37;24.30;93.80
44223;DHT22;29895;48.804;9.386;2022-07-06T09:49:03;24.20;93.30
44223;DHT22;29895;48.804;9.386;2022-07-06T09:51:31;23.80;94.30
44223;DHT22;29895;48.804;9.386;2022-07-06T09:53:57;24.10;94.10
44223;DHT22;29895;48.804;9.386;2022-07-06T09:56:41;24.20;94.10
44223;DHT22;29895;48.804;9.386;2022-07-06T09:59:11;24.20;93.50
44223;DHT22;29895;48.804;9.386;2022-07-06T10:01:37;24.30;93.70
44223;DHT22;29895;48.804;9.386;2022-07-06T10:04:03;24.60;93.70
44223;DHT22;29895;48.804;9.386;2022-07-06T10:06:29;24.60;93.70
44223;DHT22;29895;48.804;9.386;2022-07-06T10:08:54;25.00;93.20
44223;DHT22;29895;48.804;9.386;2022-07-06T10:11:20;25.10;93.20
44223;DHT22;29895;48.804;9.386;2022-07-06T10:13:45;24.40;94.00
44223;DHT22;29895;48.804;9.386;2022-07-06T10:16:12;24.40;93.90
44223;DHT22;29895;48.804;9.386;2022-07-06T10:18:41;24.40;93.70
44223;DHT22;29895;48.804;9.386;2022-07-06T10:21:07;24.80;93.50
44223;DHT22;29895;48.804;9.386;2022-07-06T10:23:33;25.40;93.00
44223;DHT22;29895;48.804;9.386;2022-07-06T10:26:01;25.50;92.60
44223;DHT22;29895;48.804;9.386;2022-07-06T10:28:27;25.20;92.90
44223;DHT22;29895;48.804;9.386;2022-07-06T10:30:52;25.20;93.30
44223;DHT22;29895;48.804;9.386;2022-07-06T10:33:19;25.00;92.90
44223;DHT22;29895;48.804;9.386;2022-07-06T10:35:45;24.80;93.00
44223;DHT22;29895;48.804;9.386;2022-07-06T10:38:11;25.00;93.20
44223;DHT22;29895;48.804;9.386;2022-07-06T10:40:37;25.10;92.80
44223;DHT22;29895;48.804;9.386;2022-07-06T10:43:41;24.50;93.80
44223;DHT22;29895;48.804;9.386;2022-07-06T10:46:14;23.60;94.70
44223;DHT22;29895;48.804;9.386;2022-07-06T10:48:46;23.60;94.90
44223;DHT22;29895;48.804;9.386;2022-07-06T10:51:12;24.30;93.80
44223;DHT22;29895;48.804;9.386;2022-07-06T10:53:38;24.40;94.00
44223;DHT22;29895;48.804;9.386;2022-07-06T10:56:05;24.80;93.60
44223;DHT22;29895;48.804;9.386;2022-07-06T11:01:03;25.20;93.30
44223;DHT22;29895;48.804;9.386;2022-07-06T11:08:59;25.60;93.10
44223;DHT22;29895;48.804;9.386;2022-07-06T11:13:54;26.50;91.40
44223;DHT22;29895;48.804;9.386;2022-07-06T11:16:21;26.00;91.70
44223;DHT22;29895;48.804;9.386;2022-07-06T11:18:48;25.80;91.80
44223;DHT22;29895;48.804;9.386;2022-07-06T11:21:23;26.70;91.40
44223;DHT22;29895;48.804;9.386;2022-07-06T11:23:56;27.70;90.60
44223;DHT22;29895;48.804;9.386;2022-07-06T11:26:22;29.10;90.00
44223;DHT22;29895;48.804;9.386;2022-07-06T11:28:48;28.50;90.00
44223;DHT22;29895;48.804;9.386;2022-07-06T11:31:16;27.40;90.00
44223;DHT22;29895;48.804;9.386;2022-07-06T11:33:44;27.30;89.90
44223;DHT22;29895;48.804;9.386;2022-07-06T11:36:19;27.40;90.10
44223;DHT22;29895;48.804;9.386;2022-07-06T11:38:46;27.70;89.40
44223;DHT22;29895;48.804;9.386;2022-07-06T11:41:12;28.10;88.60
44223;DHT22;29895;48.804;9.386;2022-07-06T11:43:39;28.50;88.20
44223;DHT22;29895;48.804;9.386;2022-07-06T11:46:18;28.70;86.50
44223;DHT22;29895;48.804;9.386;2022-07-06T11:48:50;28.30;86.60
44223;DHT22;29895;48.804;9.386;2022-07-06T11:51:16;28.20;85.90
44223;DHT22;29895;48.804;9.386;2022-07-06T11:53:45;28.30;86.80
44223;DHT22;29895;48.804;9.386;2022-07-06T11:56:11;28.10;87.60
44223;DHT22;29895;48.804;9.386;2022-07-06T11:58:37;26.90;88.90
44223;DHT22;29895;48.804;9.386;2022-07-06T12:01:07;26.20;90.40
44223;DHT22;29895;48.804;9.386;2022-07-06T12:03:33;25.90;90.50
44223;DHT22;29895;48.804;9.386;2022-07-06T12:06:06;26.00;90.30
44223;DHT22;29895;48.804;9.386;2022-07-06T12:11:16;26.70;90.40
44223;DHT22;29895;48.804;9.386;2022-07-06T12:13:44;26.90;90.30
44223;DHT22;29895;48.804;9.386;2022-07-06T12:16:10;26.70;90.20
44223;DHT22;29895;48.804;9.386;2022-07-06T12:18:36;26.80;89.50
44223;DHT22;29895;48.804;9.386;2022-07-06T12:21:02;26.60;89.10
44223;DHT22;29895;48.804;9.386;2022-07-06T12:23:37;26.80;90.00
44223;DHT22;29895;48.804;9.386;2022-07-06T12:26:03;27.10;90.00
44223;DHT22;29895;48.804;9.386;2022-07-06T12:28:28;26.70;90.10
44223;DHT22;29895;48.804;9.386;2022-07-06T12:30:54;26.80;89.50
44223;DHT22;29895;48.804;9.386;2022-07-06T12:33:20;26.90;89.00
44223;DHT22;29895;48.804;9.386;2022-07-06T12:35:47;26.60;89.20
44223;DHT22;29895;48.804;9.386;2022-07-06T12:38:13;27.00;90.00
44223;DHT22;29895;48.804;9.386;2022-07-06T12:40:46;26.90;90.00
44223;DHT22;29895;48.804;9.386;2022-07-06T12:43:11;26.90;88.90
44223;DHT22;29895;48.804;9.386;2022-07-06T12:45:38;26.80;89.40
44223;DHT22;29895;48.804;9.386;2022-07-06T12:48:05;26.90;90.00
44223;DHT22;29895;48.804;9.386;2022-07-06T12:50:32;26.20;90.10
44223;DHT22;29895;48.804;9.386;2022-07-06T12:52:58;25.60;90.60
44223;DHT22;29895;48.804;9.386;2022-07-06T12:55:27;25.30;90.60
44223;DHT22;29895;48.804;9.386;2022-07-06T12:57:53;25.10;91.10
44223;DHT22;29895;48.804;9.386;2022-07-06T13:00:20;25.10;91.10
44223;DHT22;29895;48.804;9.386;2022-07-06T13:02:51;25.30;90.50
44223;DHT22;29895;48.804;9.386;2022-07-06T13:05:23;25.00;90.70
44223;DHT22;29895;48.804;9.386;2022-07-06T13:07:57;24.70;91.20
44223;DHT22;29895;48.804;9.386;2022-07-06T13:10:24;24.60;91.40
44223;DHT22;29895;48.804;9.386;2022-07-06T13:12:50;24.90;91.30
44223;DHT22;29895;48.804;9.386;2022-07-06T13:15:17;25.80;90.60
44223;DHT22;29895;48.804;9.386;2022-07-06T13:17:42;26.30;90.20
44223;DHT22;29895;48.804;9.386;2022-07-06T13:20:09;27.10;89.60
44223;DHT22;29895;48.804;9.386;2022-07-06T13:22:35;26.80;88.30
44223;DHT22;29895;48.804;9.386;2022-07-06T13:25:03;26.80;89.20
44223;DHT22;29895;48.804;9.386;2022-07-06T13:27:28;26.70;88.90
44223;DHT22;29895;48.804;9.386;2022-07-06T13:29:54;26.40;88.40
44223;DHT22;29895;48.804;9.386;2022-07-06T13:32:19;26.20;89.30
44223;DHT22;29895;48.804;9.386;2022-07-06T13:34:45;25.60;90.20
44223;DHT22;29895;48.804;9.386;2022-07-06T13:37:10;24.70;91.20
44223;DHT22;29895;48.804;9.386;2022-07-06T13:39:37;25.40;91.00
44223;DHT22;29895;48.804;9.386;2022-07-06T13:42:04;26.20;89.60
44223;DHT22;29895;48.804;9.386;2022-07-06T13:44:30;26.10;88.40
44223;DHT22;29895;48.804;9.386;2022-07-06T13:46:55;25.80;89.30
44223;DHT22;29895;48.804;9.386;2022-07-06T13:49:22;26.40;88.80
44223;DHT22;29895;48.804;9.386;2022-07-06T13:51:49;26.50;87.40
44223;DHT22;29895;48.804;9.386;2022-07-06T13:54:15;26.60;88.10
44223;DHT22;29895;48.804;9.386;2022-07-06T13:56:43;26.20;87.90
44223;DHT22;29895;48.804;9.386;2022-07-06T13:59:09;25.90;88.20
44223;DHT22;29895;48.804;9.386;2022-07-06T14:01:35;25.50;89.00
44223;DHT22;29895;48.804;9.386;2022-07-06T14:04:02;25.50;88.90
44223;DHT22;29895;48.804;9.386;2022-07-06T14:06:43;25.60;89.40
44223;DHT22;29895;48.804;9.386;2022-07-06T14:09:17;26.00;88.50
44223;DHT22;29895;48.804;9.386;2022-07-06T14:12:03;26.90;88.00
44223;DHT22;29895;48.804;9.386;2022-07-06T14:14:28;28.00;85.70
44223;DHT22;29895;48.804;9.386;2022-07-06T14:16:55;28.00;85.00
44223;DHT22;29895;48.804;9.386;2022-07-06T14:19:24;27.20;85.90
44223;DHT22;29895;48.804;9.386;2022-07-06T14:21:51;27.10;85.00
44223;DHT22;29895;48.804;9.386;2022-07-06T14:24:17;26.40;86.50
44223;DHT22;29895;48.804;9.386;2022-07-06T14:26:42;26.20;86.90
44223;DHT22;29895;48.804;9.386;2022-07-06T14:29:08;26.40;87.30
44223;DHT22;29895;48.804;9.386;2022-07-06T14:31:33;27.50;86.00
44223;DHT22;29895;48.804;9.386;2022-07-06T14:33:59;27.50;84.60
44223;DHT22;29895;48.804;9.386;2022-07-06T14:36:25;26.90;85.60
44223;DHT22;29895;48.804;9.386;2022-07-06T14:38:50;26.40;86.70
44223;DHT22;29895;48.804;9.386;2022-07-06T14:41:17;26.20;85.40
44223;DHT22;29895;48.804;9.386;2022-07-06T14:43:42;26.60;84.80
44223;DHT22;29895;48.804;9.386;2022-07-06T14:46:09;26.50;85.70
44223;DHT22;29895;48.804;9.386;2022-07-06T14:48:35;26.80;84.80
44223;DHT22;29895;48.804;9.386;2022-07-06T14:51:02;26.40;85.70
44223;DHT22;29895;48.804;9.386;2022-07-06T14:53:27;27.10;84.50
44223;DHT22;29895;48.804;9.386;2022-07-06T14:55:54;27.30;84.10
44223;DHT22;29895;48.804;9.386;2022-07-06T14:58:20;27.70;82.80
44223;DHT22;29895;48.804;9.386;2022-07-06T15:00:47;27.10;83.40
44223;DHT22;29895;48.804;9.386;2022-07-06T15:03:14;26.80;84.00
44223;DHT22;29895;48.804;9.386;2022-07-06T15:05:41;26.90;83.90
44223;DHT22;29895;48.804;9.386;2022-07-06T15:08:12;26.60;83.70
44223;DHT22;29895;48.804;9.386;2022-07-06T15:10:40;26.70;83.60
44223;DHT22;29895;48.804;9.386;2022-07-06T15:13:08;26.50;83.80
44223;DHT22;29895;48.804;9.386;2022-07-06T15:15:35;26.40;83.40
44223;DHT22;29895;48.804;9.386;2022-07-06T15:18:01;26.10;83.80
44223;DHT22;29895;48.804;9.386;2022-07-06T15:20:27;26.00;84.10
44223;DHT22;29895;48.804;9.386;2022-07-06T15:22:52;25.90;84.20
44223;DHT22;29895;48.804;9.386;2022-07-06T15:25:18;26.10;84.60
44223;DHT22;29895;48.804;9.386;2022-07-06T15:27:44;26.50;82.80
44223;DHT22;29895;48.804;9.386;2022-07-06T15:30:10;26.10;83.60
44223;DHT22;29895;48.804;9.386;2022-07-06T15:32:36;25.80;84.30
44223;DHT22;29895;48.804;9.386;2022-07-06T15:35:02;25.40;84.50
44223;DHT22;29895;48.804;9.386;2022-07-06T15:37:32;25.10;85.60
44223;DHT22;29895;48.804;9.386;2022-07-06T15:39:57;24.60;85.70
44223;DHT22;29895;48.804;9.386;2022-07-06T15:42:23;24.30;86.00
44223;DHT22;29895;48.804;9.386;2022-07-06T15:44:51;24.00;86.80
44223;DHT22;29895;48.804;9.386;2022-07-06T15:47:18;23.90;87.20
44223;DHT22;29895;48.804;9.386;2022-07-06T15:49:44;23.90;87.50
44223;DHT22;29895;48.804;9.386;2022-07-06T15:52:10;23.60;87.20
44223;DHT22;29895;48.804;9.386;2022-07-06T15:54:36;23.30;88.00
44223;DHT22;29895;48.804;9.386;2022-07-06T15:57:03;23.10;88.70
44223;DHT22;29895;48.804;9.386;2022-07-06T15:59:29;23.10;88.30
44223;DHT22;29895;48.804;9.386;2022-07-06T16:01:54;22.90;88.00
44223;DHT22;29895;48.804;9.386;2022-07-06T16:04:20;22.70;88.60
44223;DHT22;29895;48.804;9.386;2022-07-06T16:06:46;22.70;88.70
44223;DHT22;29895;48.804;9.386;2022-07-06T16:09:12;22.80;88.60
44223;DHT22;29895;48.804;9.386;2022-07-06T16:11:37;22.90;88.60
44223;DHT22;29895;48.804;9.386;2022-07-06T16:14:04;23.00;88.20
44223;DHT22;29895;48.804;9.386;2022-07-06T16:16:29;22.90;88.80
44223;DHT22;29895;48.804;9.386;2022-07-06T16:18:55;22.90;88.80
44223;DHT22;29895;48.804;9.386;2022-07-06T16:21:21;23.00;88.70
44223;DHT22;29895;48.804;9.386;2022-07-06T16:23:47;22.90;87.90
44223;DHT22;29895;48.804;9.386;2022-07-06T16:26:14;23.00;88.10
44223;DHT22;29895;48.804;9.386;2022-07-06T16:28:40;23.20;88.20
44223;DHT22;29895;48.804;9.386;2022-07-06T16:31:07;23.30;87.40
44223;DHT22;29895;48.804;9.386;2022-07-06T16:33:32;23.20;88.10
44223;DHT22;29895;48.804;9.386;2022-07-06T16:36:05;23.00;87.20
44223;DHT22;29895;48.804;9.386;2022-07-06T16:38:32;23.00;87.30
44223;DHT22;29895;48.804;9.386;2022-07-06T16:40:57;23.00;88.50
44223;DHT22;29895;48.804;9.386;2022-07-06T16:43:25;23.00;87.70
44223;DHT22;29895;48.804;9.386;2022-07-06T16:45:53;23.00;87.00
44223;DHT22;29895;48.804;9.386;2022-07-06T16:48:19;22.90;86.50
44223;DHT22;29895;48.804;9.386;2022-07-06T16:50:44;22.80;87.40
44223;DHT22;29895;48.804;9.386;2022-07-06T16:53:10;22.80;86.90
44223;DHT22;29895;48.804;9.386;2022-07-06T16:55:35;22.60;87.20
44223;DHT22;29895;48.804;9.386;2022-07-06T16:58:01;22.50;86.70
44223;DHT22;29895;48.804;9.386;2022-07-06T17:00:26;22.50;87.60
44223;DHT22;29895;48.804;9.386;2022-07-06T17:02:54;22.50;87.60
44223;DHT22;29895;48.804;9.386;2022-07-06T17:05:19;22.40;86.90
44223;DHT22;29895;48.804;9.386;2022-07-06T17:07:45;22.30;86.50
44223;DHT22;29895;48.804;9.386;2022-07-06T17:10:11;22.30;85.90
44223;DHT22;29895;48.804;9.386;2022-07-06T17:12:36;22.20;86.60
44223;DHT22;29895;48.804;9.386;2022-07-06T17:15:02;22.20;86.80
44223;DHT22;29895;48.804;9.386;2022-07-06T17:17:28;22.20;86.50
44223;DHT22;29895;48.804;9.386;2022-07-06T17:19:54;22.20;86.40
44223;DHT22;29895;48.804;9.386;2022-07-06T17:22:20;22.10;87.10
44223;DHT22;29895;48.804;9.386;2022-07-06T17:24:46;22.20;87.20
44223;DHT22;29895;48.804;9.386;2022-07-06T17:27:11;22.10;87.20
44223;DHT22;29895;48.804;9.386;2022-07-06T17:29:37;22.00;86.80
44223;DHT22;29895;48.804;9.386;2022-07-06T17:32:04;21.80;86.00
44223;DHT22;29895;48.804;9.386;2022-07-06T17:34:30;21.70;85.10
44223;DHT22;29895;48.804;9.386;2022-07-06T17:36:56;21.60;85.70
44223;DHT22;29895;48.804;9.386;2022-07-06T17:39:21;21.60;85.80
44223;DHT22;29895;48.804;9.386;2022-07-06T17:41:47;21.60;85.80
44223;DHT22;29895;48.804;9.386;2022-07-06T17:44:12;21.60;85.90
44223;DHT22;29895;48.804;9.386;2022-07-06T17:46:38;21.60;85.60
44223;DHT22;29895;48.804;9.386;2022-07-06T17:49:04;21.40;86.10
44223;DHT22;29895;48.804;9.386;2022-07-06T17:51:31;21.40;85.90
44223;DHT22;29895;48.804;9.386;2022-07-06T17:53:58;21.40;85.90
44223;DHT22;29895;48.804;9.386;2022-07-06T17:56:23;21.50;86.20
44223;DHT22;29895;48.804;9.386;2022-07-06T17:58:49;21.50;85.80
44223;DHT22;29895;48.804;9.386;2022-07-06T18:01:15;21.30;85.70
44223;DHT22;29895;48.804;9.386;2022-07-06T18:03:40;21.20;85.80
44223;DHT22;29895;48.804;9.386;2022-07-06T18:06:07;21.20;86.10
44223;DHT22;29895;48.804;9.386;2022-07-06T18:08:33;21.10;86.60
44223;DHT22;29895;48.804;9.386;2022-07-06T18:10:58;21.10;87.20
44223;DHT22;29895;48.804;9.386;2022-07-06T18:13:25;21.10;87.60
44223;DHT22;29895;48.804;9.386;2022-07-06T18:15:51;21.10;86.80
44223;DHT22;29895;48.804;9.386;2022-07-06T18:18:18;21.10;86.80
44223;DHT22;29895;48.804;9.386;2022-07-06T18:20:44;21.10;86.70
44223;DHT22;29895;48.804;9.386;2022-07-06T18:23:09;21.10;87.00
44223;DHT22;29895;48.804;9.386;2022-07-06T18:25:35;21.10;87.10
44223;DHT22;29895;48.804;9.386;2022-07-06T18:28:01;21.10;86.80
44223;DHT22;29895;48.804;9.386;2022-07-06T18:30:27;21.10;85.90
44223;DHT22;29895;48.804;9.386;2022-07-06T18:32:53;21.10;86.30
44223;DHT22;29895;48.804;9.386;2022-07-06T18:35:21;21.00;85.90
44223;DHT22;29895;48.804;9.386;2022-07-06T18:37:46;20.90;86.10
44223;DHT22;29895;48.804;9.386;2022-07-06T18:40:12;21.00;86.90
44223;DHT22;29895;48.804;9.386;2022-07-06T18:42:37;21.00;86.50
44223;DHT22;29895;48.804;9.386;2022-07-06T18:45:05;21.00;86.20
44223;DHT22;29895;48.804;9.386;2022-07-06T18:47:31;21.00;86.20
44223;DHT22;29895;48.804;9.386;2022-07-06T18:49:57;21.00;86.50
44223;DHT22;29895;48.804;9.386;2022-07-06T18:52:23;21.00;86.80
44223;DHT22;29895;48.804;9.386;2022-07-06T18:54:48;21.00;86.80
44223;DHT22;29895;48.804;9.386;2022-07-06T18:57:14;20.90;87.10
44223;DHT22;29895;48.804;9.386;2022-07-06T18:59:39;20.90;87.60
44223;DHT22;29895;48.804;9.386;2022-07-06T19:02:05;20.90;87.90
44223;DHT22;29895;48.804;9.386;2022-07-06T19:04:30;20.90;86.80
44223;DHT22;29895;48.804;9.386;2022-07-06T19:06:56;20.80;87.20
44223;DHT22;29895;48.804;9.386;2022-07-06T19:09:21;20.80;86.90
44223;DHT22;29895;48.804;9.386;2022-07-06T19:11:47;20.80;86.60
44223;DHT22;29895;48.804;9.386;2022-07-06T19:14:13;20.70;87.00
44223;DHT22;29895;48.804;9.386;2022-07-06T19:16:38;20.60;87.00
44223;DHT22;29895;48.804;9.386;2022-07-06T19:19:04;20.50;87.70
44223;DHT22;29895;48.804;9.386;2022-07-06T19:21:32;20.50;87.80
44223;DHT22;29895;48.804;9.386;2022-07-06T19:23:58;20.40;88.40
44223;DHT22;29895;48.804;9.386;2022-07-06T19:26:24;20.20;88.60
44223;DHT22;29895;48.804;9.386;2022-07-06T19:28:50;20.20;88.60
44223;DHT22;29895;48.804;9.386;2022-07-06T19:31:16;20.00;89.00
44223;DHT22;29895;48.804;9.386;2022-07-06T19:33:45;20.00;89.20
44223;DHT22;29895;48.804;9.386;2022-07-06T19:36:10;19.90;89.40
44223;DHT22;29895;48.804;9.386;2022-07-06T19:38:36;19.80;89.90
44223;DHT22;29895;48.804;9.386;2022-07-06T19:41:01;19.70;90.00